Marion, Massachusetts
Current Conditions -  °F | °C
As of 8:53 AM on Friday 24 Oct 2014 (Local Time) from KEWB Reporting Station
Overcast Overcast  
Wind Chill: 51°   Ceiling: 1000
Heat Index: 51°   Visibility: 10mi
Dew Point: 48°   Wind: 6mph
Humidity: 89%   Direction: NA
Pressure: 29.68"   Gusts: NA
Location:  41.7°N, 70.76°W
Report Text: KEWB 241253Z VRB05KT 10SM BKN010 OVC015 11/09 A2968 RMK AO2 RAB04E13 SLP051 P0000 T01060089
Loading
Personal Weather Stations






























Interactive Weather Map
Tropical Storm Tracking
New forecast layout! Learn more

10-Day Weather Forecast

Advertisements
Track Severe Weather on mobile